Memphis International Airport
KMEM : now visible

Airfield :











YOU CAN JOIN US ON...

 
LOGIN :

Register | Disclaimer

   EN    FR    IT 

 









Legend :    VFR   Marginal VFR   IFR   Intensive IFR   Very Intensive IFR
Visi :
Ceiling :
>= 8 km
>= 3000ft
5 to 8 km
1000 to 3000 ft
1500m to 5 km
500 to 1000 ft
800 to 1500m
200 to 500 ft
< 800m
< 200 ft
Symbols :   Thunderstorms  Fog  Heavy snow  Heavy precipitations  Wind > 20 kt






- Airport Elevation : 341 ft
- IATA code : MEM


KMEM - Memphis International

CURRENT METAR :
  • 012254Z 16006KT 10SM BKN050 BKN070 33/22 A2996 RMK AO2 RAB01E32 SLP141 P0000 T03330222

EXPIRED METARs :
  • 011554Z 21007KT 180V240 10SM BKN025 31/22 A3007 RMK AO2 SLP178 BKN025 V SCT T03110217
  • 012154Z 16009KT 10SM BKN050 34/21 A2997 RMK AO2 SLP143 T03440211
  • 012054Z 20008KT 10SM BKN050 33/21 A2999 RMK AO2 SLP149 TCU DSNT S-SW T03330211 56018

TAF KMEM
Valid from the 01 at 21:00 until the 03 at 00:00 UTC


012054Z 0121/0224 19007KT P6SM VCTS SCT030CB BKN050
FM020100 20005KT P6SM FEW050
FM021800 21006KT P6SM BKN050
KZME FIR / North America



MET'MAP, your aeronautical weather chart ! - Copyright ORBIFLY December 2007 - Disclaimer

ORBIFLY MET'MAP TEAM :

Programming & Development : Alexandra Zaïnal
Original concept : Baudouin d'Aumeries
Technical & hardware support : Manuel Goepfert
Assistance : Marc-Olivier Méhu




SOURCES & CREDITS :

   NOAA       Earth
Advisory